Time;durP1;ratioP1;P1;durP2;ratioP2;P2;SDS_P1;SDS_P2;PMS_P1;PMS_P2;Temp;Humidity;BMP_temperature;BMP_pressure;BME280_temperature;BME280_humidity;BME280_pressure;Samples;Min_cycle;Max_cycle;Signal;HPM_P1;HPM_P2
2023/03/22 00:03:20;;;;;;;5.00;4.50;;;13.70;34.80;;;;;;10460755;28;20233;-70
2023/03/22 00:08:24;;;;;;;5.07;4.57;;;13.70;34.70;;;;;;10458290;28;20837;-70
2023/03/22 00:13:28;;;;;;;5.40;4.90;;;13.70;34.90;;;;;;10458532;28;20235;-70
2023/03/22 00:18:31;;;;;;;5.67;5.10;;;13.80;34.90;;;;;;10459444;28;20227;-70
2023/03/22 00:23:36;;;;;;;5.33;4.83;;;13.70;34.80;;;;;;10456716;28;20957;-70
2023/03/22 00:28:39;;;;;;;6.23;5.57;;;13.60;35.20;;;;;;10450131;28;20240;-70
2023/03/22 00:33:42;;;;;;;5.47;4.90;;;13.60;35.10;;;;;;10452715;28;20236;-71
2023/03/22 00:38:47;;;;;;;7.47;5.80;;;13.60;35.20;;;;;;10456462;28;20228;-71
2023/03/22 00:43:51;;;;;;;5.77;5.27;;;13.50;35.40;;;;;;10454170;28;20232;-71
2023/03/22 00:48:54;;;;;;;5.63;5.17;;;13.40;35.50;;;;;;10456980;28;20229;-71
2023/03/22 00:53:59;;;;;;;6.30;5.70;;;13.30;35.50;;;;;;10456382;28;20418;-71
2023/03/22 00:59:02;;;;;;;5.40;4.90;;;13.20;36.00;;;;;;10456676;28;20622;-71
2023/03/22 01:04:06;;;;;;;6.17;5.67;;;13.10;35.80;;;;;;10453641;28;20822;-71
2023/03/22 01:09:13;;;;;;;6.03;5.43;;;13.00;36.10;;;;;;10451611;28;20242;-71
2023/03/22 01:14:18;;;;;;;5.97;5.47;;;13.00;36.50;;;;;;10455688;28;20231;-71
2023/03/22 01:19:21;;;;;;;6.43;5.93;;;13.00;36.20;;;;;;10450002;28;20625;-71
2023/03/22 01:24:25;;;;;;;6.10;5.60;;;13.00;36.40;;;;;;10445103;28;20235;-71
2023/03/22 01:29:30;;;;;;;6.00;5.50;;;13.00;36.70;;;;;;10463410;28;20228;-70
2023/03/22 01:34:33;;;;;;;7.13;5.83;;;13.10;36.50;;;;;;10453549;28;20240;-71
2023/03/22 01:39:37;;;;;;;6.33;5.77;;;13.10;36.60;;;;;;10452336;28;20233;-71
2023/03/22 01:44:43;;;;;;;6.30;5.80;;;13.10;36.70;;;;;;10453893;28;20236;-71
2023/03/22 01:49:46;;;;;;;6.63;5.90;;;13.00;36.90;;;;;;10458100;28;20537;-70
2023/03/22 01:54:53;;;;;;;7.00;6.30;;;12.90;36.70;;;;;;10451814;28;20240;-71
2023/03/22 01:59:57;;;;;;;5.90;5.40;;;12.90;37.50;;;;;;10458022;28;20216;-71
2023/03/22 02:05:02;;;;;;;6.53;5.97;;;12.90;36.80;;;;;;10451420;28;20236;-71
2023/03/22 02:10:11;;;;;;;6.97;6.30;;;13.00;36.90;;;;;;10455695;28;20224;-71
2023/03/22 02:15:23;;;;;;;6.97;6.37;;;13.00;37.60;;;;;;10450058;28;20246;-71
2023/03/22 02:21:00;;;;;;;6.60;5.90;;;13.00;37.70;;;;;;10449732;28;20569;-72
2023/03/22 02:26:40;;;;;;;6.63;6.03;;;13.00;38.10;;;;;;10454699;28;20229;-72
2023/03/22 02:32:16;;;;;;;6.87;6.23;;;13.00;37.80;;;;;;10464286;28;20274;-71
2023/03/22 02:37:52;;;;;;;6.53;6.03;;;13.00;38.10;;;;;;10462737;28;20227;-71
2023/03/22 02:43:05;;;;;;;6.60;6.00;;;12.90;38.00;;;;;;10463865;28;20572;-72
2023/03/22 02:48:13;;;;;;;5.53;5.13;;;13.00;37.90;;;;;;10462276;28;20233;-71
2023/03/22 02:53:20;;;;;;;6.43;5.83;;;13.00;37.40;;;;;;10458833;28;20256;-71
2023/03/22 02:58:28;;;;;;;6.80;6.30;;;13.00;37.50;;;;;;10460439;28;20220;-71
2023/03/22 03:03:36;;;;;;;6.93;6.33;;;13.10;37.70;;;;;;10456658;28;20294;-71
2023/03/22 03:08:40;;;;;;;7.00;6.40;;;13.00;37.40;;;;;;10455417;28;20229;-71
2023/03/22 03:13:47;;;;;;;5.70;5.23;;;13.00;37.30;;;;;;10460178;28;20477;-71
2023/03/22 03:18:58;;;;;;;6.03;5.40;;;12.90;37.70;;;;;;10462034;28;20231;-71
2023/03/22 03:24:14;;;;;;;7.33;6.43;;;12.90;37.80;;;;;;10455217;28;20274;-71
2023/03/22 03:29:25;;;;;;;6.50;5.67;;;12.90;38.00;;;;;;10461294;28;20726;-71
2023/03/22 03:34:33;;;;;;;6.30;5.80;;;12.90;37.80;;;;;;10456717;28;20232;-71
2023/03/22 03:39:43;;;;;;;9.97;9.00;;;13.00;37.60;;;;;;10460867;28;20228;-71
2023/03/22 03:44:47;;;;;;;7.60;6.70;;;13.00;37.50;;;;;;10457755;28;20224;-71
2023/03/22 03:49:51;;;;;;;6.60;6.10;;;13.00;37.10;;;;;;10455718;28;20233;-71
2023/03/22 03:54:54;;;;;;;6.77;6.13;;;12.90;36.70;;;;;;10458050;28;20232;-71
2023/03/22 03:59:59;;;;;;;8.40;7.57;;;12.90;36.70;;;;;;10458163;28;20224;-71
2023/03/22 04:05:02;;;;;;;7.13;6.53;;;12.90;36.90;;;;;;10457207;28;20231;-75
2023/03/22 04:10:07;;;;;;;7.03;6.40;;;12.90;36.40;;;;;;10458819;28;20220;-70
2023/03/22 04:15:12;;;;;;;7.70;7.10;;;12.70;36.50;;;;;;10455152;28;20644;-71
2023/03/22 04:20:16;;;;;;;6.83;6.23;;;12.70;36.60;;;;;;10452422;28;20223;-71
2023/03/22 04:25:21;;;;;;;5.87;5.37;;;12.60;36.40;;;;;;10452589;28;20224;-71
2023/03/22 04:30:26;;;;;;;7.37;6.80;;;12.60;36.20;;;;;;10458356;28;20562;-72
2023/03/22 04:35:29;;;;;;;6.90;6.30;;;12.60;36.30;;;;;;10456252;28;20723;-71
2023/03/22 04:40:35;;;;;;;6.20;5.70;;;12.40;36.10;;;;;;10457207;28;20251;-71
2023/03/22 04:45:40;;;;;;;6.10;5.60;;;12.10;36.50;;;;;;10455196;28;20337;-71
2023/03/22 04:50:44;;;;;;;6.70;6.17;;;12.00;37.00;;;;;;10454785;28;20224;-71
2023/03/22 04:55:47;;;;;;;6.10;5.60;;;11.90;36.70;;;;;;10451412;28;20607;-71
2023/03/22 05:00:53;;;;;;;6.80;6.20;;;11.90;36.70;;;;;;10450805;28;20312;-71
2023/03/22 05:05:57;;;;;;;6.93;6.30;;;11.90;36.90;;;;;;10456141;28;20227;-71
2023/03/22 05:11:08;;;;;;;5.63;5.20;;;11.80;36.60;;;;;;10454846;28;20236;-71
2023/03/22 05:16:12;;;;;;;6.40;5.90;;;11.60;37.10;;;;;;10453245;28;20228;-71
2023/03/22 05:21:20;;;;;;;6.90;6.30;;;11.50;36.90;;;;;;10451739;28;20618;-71
2023/03/22 05:26:25;;;;;;;7.70;7.00;;;11.40;36.90;;;;;;10451295;28;20232;-71
2023/03/22 05:31:33;;;;;;;8.20;7.50;;;11.40;36.80;;;;;;10451350;28;20228;-72
2023/03/22 05:36:36;;;;;;;8.17;6.50;;;11.40;36.90;;;;;;10447649;28;20252;-73
2023/03/22 05:41:39;;;;;;;9.03;8.23;;;11.30;36.70;;;;;;10456908;28;20251;-72
2023/03/22 05:46:44;;;;;;;7.83;7.13;;;11.20;36.80;;;;;;10456035;28;20232;-71
2023/03/22 05:51:47;;;;;;;7.70;6.90;;;11.20;37.20;;;;;;10460969;28;20224;-71
2023/03/22 05:56:51;;;;;;;6.47;5.40;;;11.10;37.20;;;;;;10451348;28;20231;-71
2023/03/22 06:01:59;;;;;;;6.37;5.77;;;11.10;37.20;;;;;;10458961;28;20224;-71
2023/03/22 06:07:02;;;;;;;7.20;6.33;;;11.20;37.60;;;;;;10459769;28;20240;-73
2023/03/22 06:12:05;;;;;;;6.50;5.90;;;11.20;37.20;;;;;;10461340;28;20293;-71
2023/03/22 06:17:10;;;;;;;7.47;6.70;;;11.30;37.30;;;;;;10459509;28;20239;-72
2023/03/22 06:22:14;;;;;;;7.40;6.73;;;11.30;37.70;;;;;;10458884;28;20231;-68
2023/03/22 06:27:18;;;;;;;7.30;6.50;;;11.30;38.10;;;;;;10456124;28;20390;-72
2023/03/22 06:32:23;;;;;;;7.07;6.37;;;11.40;38.80;;;;;;10460983;28;20225;-72
2023/03/22 06:37:26;;;;;;;7.30;6.60;;;11.50;39.00;;;;;;10460842;28;20701;-72
2023/03/22 06:42:33;;;;;;;7.53;6.67;;;11.60;38.60;;;;;;10459957;28;20715;-73
2023/03/22 06:47:37;;;;;;;8.13;7.40;;;11.60;38.60;;;;;;10468615;28;20237;-72
2023/03/22 06:52:41;;;;;;;8.83;8.03;;;11.70;39.30;;;;;;10461308;28;20229;-72
2023/03/22 06:57:44;;;;;;;8.03;7.33;;;11.70;39.40;;;;;;10461098;28;20232;-72
2023/03/22 07:02:48;;;;;;;8.97;8.07;;;11.70;39.50;;;;;;10458519;28;20239;-72
2023/03/22 07:07:54;;;;;;;7.60;6.77;;;11.80;40.10;;;;;;10447904;28;20495;-72
2023/03/22 07:12:58;;;;;;;7.70;6.90;;;11.90;39.80;;;;;;10445480;28;20225;-68
2023/03/22 07:18:02;;;;;;;10.03;9.10;;;12.00;40.30;;;;;;10456580;28;20236;-74
2023/03/22 07:23:05;;;;;;;8.87;8.17;;;12.20;40.50;;;;;;10446060;28;20247;-73
2023/03/22 07:28:10;;;;;;;8.60;7.80;;;12.30;40.30;;;;;;10456014;28;20650;-72
2023/03/22 07:33:14;;;;;;;9.30;8.50;;;12.50;40.30;;;;;;10450228;28;20887;-72
2023/03/22 07:38:18;;;;;;;8.57;7.87;;;12.60;40.50;;;;;;10449552;28;20693;-72
2023/03/22 07:43:21;;;;;;;8.47;7.67;;;12.80;40.20;;;;;;10452228;28;20247;-72
2023/03/22 07:48:27;;;;;;;8.67;7.93;;;13.00;40.20;;;;;;10450897;28;20236;-70
2023/03/22 07:53:30;;;;;;;8.73;7.93;;;13.20;40.40;;;;;;10446406;28;20232;-71
2023/03/22 07:58:34;;;;;;;9.23;8.50;;;13.40;39.90;;;;;;10447026;28;20312;-71
2023/03/22 08:03:39;;;;;;;9.53;7.83;;;13.70;40.10;;;;;;10460388;28;20547;-71
2023/03/22 08:08:42;;;;;;;8.77;7.93;;;14.00;40.30;;;;;;10462380;28;20602;-70
2023/03/22 08:13:45;;;;;;;8.33;7.60;;;14.30;40.00;;;;;;10452617;28;20320;-69
2023/03/22 08:18:50;;;;;;;8.03;7.23;;;14.50;39.80;;;;;;10455074;28;20213;-71
2023/03/22 08:23:53;;;;;;;8.17;7.57;;;14.80;39.80;;;;;;10454419;28;20224;-71
2023/03/22 08:28:57;;;;;;;7.63;6.93;;;15.10;39.60;;;;;;10454775;28;20652;-72
2023/03/22 08:34:01;;;;;;;9.17;7.23;;;15.40;39.30;;;;;;10454817;28;20599;-72
2023/03/22 08:39:05;;;;;;;8.10;7.30;;;15.60;38.80;;;;;;10453591;28;20228;-72
2023/03/22 08:44:08;;;;;;;8.43;7.23;;;15.90;38.80;;;;;;10448238;28;20588;-71
2023/03/22 08:49:13;;;;;;;9.30;8.40;;;16.10;38.50;;;;;;10455777;28;21014;-72
2023/03/22 08:54:17;;;;;;;7.77;7.23;;;16.30;38.40;;;;;;10451564;28;20261;-72
2023/03/22 08:59:20;;;;;;;7.43;6.80;;;16.60;38.40;;;;;;10453908;28;20231;-72
2023/03/22 09:04:25;;;;;;;7.10;6.50;;;16.80;37.90;;;;;;10456224;28;20746;-72
2023/03/22 09:09:28;;;;;;;7.70;6.83;;;17.00;37.40;;;;;;10459639;28;20228;-72
2023/03/22 09:14:31;;;;;;;6.20;5.70;;;17.20;37.30;;;;;;10457384;28;20252;-72
2023/03/22 09:19:38;;;;;;;6.37;5.80;;;17.40;37.10;;;;;;10457518;28;20232;-68
2023/03/22 09:24:42;;;;;;;5.57;5.07;;;17.60;36.20;;;;;;10451401;28;20847;-72
2023/03/22 09:29:45;;;;;;;5.60;5.07;;;17.80;36.80;;;;;;10456113;28;20228;-72
2023/03/22 09:34:49;;;;;;;5.13;4.30;;;18.00;36.40;;;;;;10454472;28;20275;-72
2023/03/22 09:39:52;;;;;;;4.67;4.27;;;18.20;34.90;;;;;;10451617;28;20224;-72
2023/03/22 09:44:57;;;;;;;4.27;3.97;;;18.40;35.30;;;;;;10455248;28;20244;-69
2023/03/22 09:50:08;;;;;;;4.50;4.10;;;18.60;35.30;;;;;;10455269;28;20658;-72
2023/03/22 09:55:19;;;;;;;4.43;4.10;;;18.70;34.40;;;;;;10453518;28;20233;-72
2023/03/22 10:00:31;;;;;;;4.30;4.00;;;18.90;33.70;;;;;;10455557;28;20236;-72
2023/03/22 10:05:43;;;;;;;3.80;3.53;;;19.10;34.00;;;;;;10456389;28;20661;-73
2023/03/22 10:10:46;;;;;;;4.53;3.97;;;19.30;32.70;;;;;;10452594;28;20236;-72
2023/03/22 10:15:52;;;;;;;4.17;3.77;;;19.40;33.80;;;;;;10453202;28;20720;-72
2023/03/22 10:21:01;;;;;;;4.17;3.77;;;19.60;32.60;;;;;;10453266;28;20236;-72
2023/03/22 10:26:06;;;;;;;3.60;3.30;;;19.60;31.30;;;;;;10455233;28;20324;-73
2023/03/22 10:31:16;;;;;;;2.73;2.60;;;19.60;32.10;;;;;;10451612;28;20232;-72
2023/03/22 10:36:23;;;;;;;2.30;2.20;;;19.60;31.00;;;;;;10456946;28;20278;-72
2023/03/22 10:41:28;;;;;;;2.30;2.20;;;19.70;30.70;;;;;;10455386;28;20689;-72
2023/03/22 10:46:35;;;;;;;2.60;2.40;;;19.90;31.20;;;;;;10452634;28;20837;-72
2023/03/22 10:51:46;;;;;;;2.63;2.43;;;20.00;30.70;;;;;;10463016;28;20232;-72
2023/03/22 10:56:49;;;;;;;2.60;2.40;;;20.20;29.80;;;;;;10456642;28;20225;-72
2023/03/22 11:01:52;;;;;;;2.53;2.33;;;20.30;30.90;;;;;;10455477;28;20692;-72
2023/03/22 11:06:57;;;;;;;2.13;2.00;;;20.40;30.30;;;;;;10446816;28;20763;-72
2023/03/22 11:12:01;;;;;;;1.50;1.40;;;20.40;29.50;;;;;;10442031;28;20745;-72
2023/03/22 11:17:11;;;;;;;1.50;1.40;;;20.50;30.00;;;;;;10449635;28;20350;-73
2023/03/22 11:22:25;;;;;;;1.50;1.40;;;20.60;28.90;;;;;;10447171;28;20228;-72
2023/03/22 11:27:30;;;;;;;1.70;1.60;;;20.60;27.90;;;;;;10464301;28;20614;-72
2023/03/22 11:32:38;;;;;;;1.50;1.37;;;20.60;29.40;;;;;;10467683;28;20220;-72
2023/03/22 11:37:44;;;;;;;1.70;1.50;;;20.70;29.10;;;;;;10462953;28;20229;-72
2023/03/22 11:42:49;;;;;;;1.40;1.30;;;20.80;28.60;;;;;;10461824;28;20233;-73
2023/03/22 11:47:53;;;;;;;1.60;1.50;;;20.80;29.00;;;;;;10467187;28;20216;-73
2023/03/22 11:53:01;;;;;;;1.70;1.60;;;20.80;28.80;;;;;;10464729;28;20235;-71
2023/03/22 11:58:06;;;;;;;1.50;1.40;;;20.90;28.00;;;;;;10466421;28;20228;-73
2023/03/22 12:03:15;;;;;;;1.40;1.30;;;20.90;28.30;;;;;;10464235;28;20239;-72
2023/03/22 12:08:26;;;;;;;1.40;1.27;;;21.00;28.00;;;;;;10460495;28;20632;-72
2023/03/22 12:13:37;;;;;;;1.63;1.40;;;21.10;27.70;;;;;;10462939;28;20241;-72
2023/03/22 12:18:49;;;;;;;1.40;1.30;;;21.20;27.10;;;;;;10461576;28;20228;-72
2023/03/22 12:23:58;;;;;;;1.30;1.20;;;21.30;26.20;;;;;;10464123;28;20762;-71
2023/03/22 12:29:04;;;;;;;1.60;1.50;;;21.30;27.80;;;;;;10464421;28;20286;-72
2023/03/22 12:34:12;;;;;;;1.40;1.30;;;21.30;27.40;;;;;;10459663;28;20607;-72
2023/03/22 12:39:23;;;;;;;4.63;1.50;;;21.30;27.50;;;;;;10462585;28;20231;-71
2023/03/22 12:44:31;;;;;;;1.30;1.20;;;21.30;26.20;;;;;;10458613;28;20238;-71
2023/03/22 12:49:39;;;;;;;1.93;1.63;;;21.40;26.70;;;;;;10456384;28;20228;-71
2023/03/22 12:54:44;;;;;;;2.90;1.83;;;21.40;26.60;;;;;;10454208;28;20597;-71
2023/03/22 12:59:50;;;;;;;2.13;1.50;;;21.30;26.20;;;;;;10462908;28;20534;-71
2023/03/22 13:04:56;;;;;;;2.23;1.30;;;21.30;26.20;;;;;;10457986;28;20600;-71
2023/03/22 13:10:21;;;;;;;1.67;1.57;;;21.30;27.20;;;;;;10455772;28;20240;-71
2023/03/22 13:15:33;;;;;;;1.77;1.67;;;21.30;26.20;;;;;;10459124;28;20692;-71
2023/03/22 13:21:15;;;;;;;5.33;2.23;;;21.40;26.20;;;;;;10464377;28;20233;-71
2023/03/22 13:26:20;;;;;;;1.60;1.50;;;21.40;26.30;;;;;;10457377;28;20586;-71
2023/03/22 13:31:36;;;;;;;2.70;1.40;;;21.40;26.30;;;;;;10456641;28;20224;-71
2023/03/22 13:36:40;;;;;;;2.00;1.20;;;21.50;26.30;;;;;;10458192;28;20389;-70
2023/03/22 13:41:48;;;;;;;1.57;1.47;;;21.60;27.10;;;;;;10458451;28;20236;-71
2023/03/22 13:46:53;;;;;;;1.40;1.30;;;21.70;26.50;;;;;;10464319;28;20238;-71
2023/03/22 13:52:00;;;;;;;1.43;1.40;;;21.80;26.50;;;;;;10458100;28;20228;-71
2023/03/22 13:57:17;;;;;;;1.37;1.27;;;21.80;25.10;;;;;;10456604;28;20231;-72
2023/03/22 14:02:27;;;;;;;1.07;1.07;;;21.80;24.60;;;;;;10461646;28;20231;-75
2023/03/22 14:07:35;;;;;;;1.50;1.40;;;21.90;24.30;;;;;;10460908;28;20216;-72
2023/03/22 14:12:49;;;;;;;1.50;1.40;;;21.90;25.50;;;;;;10463392;28;20243;-77
2023/03/22 14:17:56;;;;;;;1.20;1.10;;;22.00;24.60;;;;;;10459558;28;20693;-76
2023/03/22 14:23:03;;;;;;;1.50;1.40;;;22.10;24.80;;;;;;10465431;28;20217;-76
2023/03/22 14:28:07;;;;;;;1.60;1.43;;;22.20;25.00;;;;;;10468671;28;20229;-71
2023/03/22 14:33:18;;;;;;;1.33;1.27;;;22.20;24.30;;;;;;10536237;22;20280;-71
2023/03/22 14:38:26;;;;;;;1.43;1.30;;;22.20;24.50;;;;;;10459820;28;20236;-69
2023/03/22 14:43:30;;;;;;;1.40;1.30;;;22.10;24.60;;;;;;10470492;28;20220;-74
2023/03/22 14:48:34;;;;;;;1.67;1.43;;;22.10;24.80;;;;;;10467633;28;20998;-75
2023/03/22 14:53:38;;;;;;;1.30;1.27;;;22.00;25.10;;;;;;10455586;28;20250;-75
2023/03/22 14:58:43;;;;;;;1.70;1.60;;;22.00;25.50;;;;;;10446516;28;20220;-75
2023/03/22 15:03:47;;;;;;;1.30;1.20;;;22.00;24.90;;;;;;10444368;28;20244;-75
2023/03/22 15:08:49;;;;;;;4.27;1.37;;;22.00;24.90;;;;;;10451719;28;20224;-76
2023/03/22 15:13:54;;;;;;;1.37;1.27;;;21.90;25.60;;;;;;10441591;28;20225;-76
2023/03/22 15:18:57;;;;;;;1.90;1.10;;;22.00;24.70;;;;;;10444165;28;20626;-76
2023/03/22 15:24:15;;;;;;;1.67;1.30;;;22.00;25.10;;;;;;10445456;28;20236;-75
2023/03/22 15:29:22;;;;;;;1.50;1.40;;;22.00;24.50;;;;;;10452181;28;21001;-75
2023/03/22 15:34:27;;;;;;;1.47;1.27;;;22.00;24.10;;;;;;10451052;28;20322;-75
2023/03/22 15:39:36;;;;;;;1.30;1.20;;;22.00;24.40;;;;;;10449127;28;20315;-76
2023/03/22 15:44:50;;;;;;;1.43;1.23;;;22.00;23.90;;;;;;10434182;28;20231;-76
2023/03/22 15:49:55;;;;;;;2.90;1.73;;;22.00;23.90;;;;;;10446984;28;20216;-76
2023/03/22 15:55:01;;;;;;;4.20;1.80;;;22.00;24.00;;;;;;10446029;28;20711;-76
2023/03/22 16:00:11;;;;;;;2.07;1.33;;;22.00;24.10;;;;;;10447164;28;20320;-74
2023/03/22 16:05:13;;;;;;;1.60;1.50;;;22.00;23.70;;;;;;10437207;28;20224;-75
2023/03/22 16:10:17;;;;;;;1.10;1.10;;;21.90;24.40;;;;;;10436236;28;20818;-76
2023/03/22 16:15:22;;;;;;;1.77;1.40;;;21.90;24.30;;;;;;10437108;28;20583;-76
2023/03/22 16:20:31;;;;;;;1.20;1.10;;;21.90;23.90;;;;;;10443695;28;20243;-75
2023/03/22 16:25:37;;;;;;;1.20;1.10;;;21.90;24.10;;;;;;10443524;28;20714;-75
2023/03/22 16:30:49;;;;;;;1.57;1.47;;;21.80;24.00;;;;;;10429874;28;20224;-76
2023/03/22 16:35:51;;;;;;;5.50;2.63;;;21.80;23.20;;;;;;10446991;28;20235;-76
2023/03/22 16:40:54;;;;;;;1.57;1.47;;;21.80;24.30;;;;;;10447285;28;20341;-76
2023/03/22 16:45:59;;;;;;;1.70;1.30;;;21.80;24.30;;;;;;10446891;28;20236;-76
2023/03/22 16:51:01;;;;;;;1.50;1.40;;;21.80;24.10;;;;;;10444844;28;20415;-76
2023/03/22 16:56:03;;;;;;;1.40;1.30;;;21.80;24.30;;;;;;10445956;28;20389;-75
2023/03/22 17:01:11;;;;;;;1.63;1.43;;;21.70;24.20;;;;;;10438124;28;20765;-75
2023/03/22 17:06:15;;;;;;;2.03;1.30;;;21.60;23.70;;;;;;10451759;28;20220;-76
2023/03/22 17:11:22;;;;;;;3.03;1.30;;;21.60;24.50;;;;;;10445836;28;20234;-76
2023/03/22 17:16:26;;;;;;;1.70;1.50;;;21.40;24.10;;;;;;10443205;28;20244;-76
2023/03/22 17:21:29;;;;;;;5.07;2.23;;;21.50;24.50;;;;;;10441262;28;20229;-76
2023/03/22 17:26:31;;;;;;;15.70;5.60;;;21.40;24.60;;;;;;10446197;28;20316;-73
2023/03/22 17:31:35;;;;;;;8.87;4.63;;;21.30;24.70;;;;;;10443085;28;20787;-73
2023/03/22 17:36:37;;;;;;;5.33;4.30;;;21.20;24.50;;;;;;10442925;28;20231;-73
2023/03/22 17:41:39;;;;;;;3.97;3.07;;;21.10;24.70;;;;;;10444352;28;20805;-73
2023/03/22 17:46:42;;;;;;;3.07;2.87;;;21.00;24.80;;;;;;10444959;28;20705;-73
2023/03/22 17:51:44;;;;;;;8.03;5.80;;;20.80;24.70;;;;;;10438249;28;20221;-74
2023/03/22 17:56:46;;;;;;;7.17;5.93;;;20.60;25.10;;;;;;10452266;28;20743;-73
2023/03/22 18:01:56;;;;;;;7.67;5.40;;;20.40;25.30;;;;;;10442288;28;20332;-73
2023/03/22 18:06:58;;;;;;;9.43;5.37;;;20.20;25.40;;;;;;10452992;28;20224;-73
2023/03/22 18:12:00;;;;;;;8.07;4.53;;;20.00;25.30;;;;;;10455989;28;20594;-73
2023/03/22 18:17:03;;;;;;;7.63;4.37;;;19.90;26.30;;;;;;10448838;28;20232;-72
2023/03/22 18:22:06;;;;;;;4.70;3.93;;;19.90;26.20;;;;;;10449773;28;20327;-72
2023/03/22 18:27:08;;;;;;;12.17;4.50;;;19.90;26.20;;;;;;10438996;28;20225;-72
2023/03/22 18:32:11;;;;;;;9.03;8.00;;;19.90;26.10;;;;;;10448682;28;20243;-73
2023/03/22 18:37:17;;;;;;;7.90;7.17;;;20.00;25.70;;;;;;10450653;28;20220;-76
2023/03/22 18:42:19;;;;;;;5.10;4.67;;;19.80;25.60;;;;;;10453925;28;20708;-76
2023/03/22 18:47:23;;;;;;;6.17;5.57;;;19.60;25.30;;;;;;10450428;28;20232;-76
2023/03/22 18:52:25;;;;;;;5.17;4.70;;;19.30;25.40;;;;;;10451757;28;20296;-77
2023/03/22 18:57:27;;;;;;;4.03;3.70;;;19.10;25.60;;;;;;10447770;28;20308;-76
2023/03/22 19:02:31;;;;;;;2.83;2.63;;;18.60;25.80;;;;;;10453406;28;20706;-76
2023/03/22 19:07:33;;;;;;;2.40;2.20;;;18.40;26.20;;;;;;10448903;28;20239;-76
2023/03/22 19:12:36;;;;;;;2.83;2.53;;;18.30;26.20;;;;;;10445627;28;20227;-76
2023/03/22 19:17:39;;;;;;;3.83;2.93;;;18.30;26.30;;;;;;10448690;28;20591;-76
2023/03/22 19:22:41;;;;;;;3.27;2.70;;;18.20;26.40;;;;;;10447910;28;20605;-76
2023/03/22 19:27:44;;;;;;;4.53;2.87;;;18.10;26.30;;;;;;10444764;28;20231;-77
2023/03/22 19:32:47;;;;;;;4.67;3.07;;;18.00;26.40;;;;;;10441489;28;20225;-77
2023/03/22 19:37:50;;;;;;;5.27;3.13;;;17.90;26.40;;;;;;10447574;28;20815;-77
2023/03/22 19:42:52;;;;;;;4.60;3.77;;;17.80;26.40;;;;;;10438476;28;20601;-75
2023/03/22 19:47:56;;;;;;;5.73;4.40;;;17.80;26.40;;;;;;10445018;28;20636;-74
2023/03/22 19:52:58;;;;;;;4.37;3.97;;;17.70;26.40;;;;;;10449621;28;20612;-75
2023/03/22 19:58:00;;;;;;;6.20;4.40;;;17.60;26.30;;;;;;10447070;28;20220;-74
2023/03/22 20:03:04;;;;;;;5.00;4.50;;;17.50;26.40;;;;;;10443497;28;20251;-74
2023/03/22 20:08:07;;;;;;;4.60;4.17;;;17.40;26.60;;;;;;10447323;28;20294;-75
2023/03/22 20:13:10;;;;;;;5.77;4.70;;;17.30;26.50;;;;;;10444272;28;20305;-74
2023/03/22 20:18:13;;;;;;;5.00;4.57;;;17.20;26.60;;;;;;10449337;28;20221;-75
2023/03/22 20:23:15;;;;;;;3.97;3.67;;;17.10;26.60;;;;;;10441553;28;20315;-75
2023/03/22 20:28:17;;;;;;;5.00;4.03;;;16.90;26.40;;;;;;10444160;28;20221;-75
2023/03/22 20:33:22;;;;;;;4.97;4.10;;;16.80;26.60;;;;;;10447506;28;20231;-75
2023/03/22 20:38:24;;;;;;;4.90;4.40;;;16.80;26.80;;;;;;10443840;28;20240;-75
2023/03/22 20:43:27;;;;;;;7.00;5.20;;;16.60;26.60;;;;;;10442381;28;20240;-74
2023/03/22 20:48:31;;;;;;;4.90;4.50;;;16.50;26.70;;;;;;10445144;28;20221;-76
2023/03/22 20:53:33;;;;;;;5.30;4.10;;;16.40;27.00;;;;;;10445711;28;20229;-75
2023/03/22 20:58:35;;;;;;;5.00;4.60;;;16.30;27.00;;;;;;10447404;28;20558;-75
2023/03/22 21:03:41;;;;;;;4.80;4.40;;;16.20;27.10;;;;;;10444221;28;20223;-76
2023/03/22 21:08:43;;;;;;;6.00;4.63;;;16.10;27.30;;;;;;10448492;28;20727;-76
2023/03/22 21:13:45;;;;;;;7.40;5.23;;;16.00;27.00;;;;;;10445615;28;20229;-76
2023/03/22 21:18:49;;;;;;;5.87;5.30;;;15.90;27.10;;;;;;10447109;28;20231;-76
2023/03/22 21:23:51;;;;;;;6.80;5.10;;;15.80;27.40;;;;;;10434430;28;20312;-76
2023/03/22 21:28:54;;;;;;;5.87;5.27;;;15.70;27.30;;;;;;10447262;28;20707;-76
2023/03/22 21:33:58;;;;;;;5.80;5.20;;;15.70;27.30;;;;;;10448204;28;20253;-76
2023/03/22 21:39:01;;;;;;;5.70;5.10;;;15.60;27.60;;;;;;10443275;28;20213;-77
2023/03/22 21:44:06;;;;;;;5.47;4.40;;;15.50;27.30;;;;;;10442039;28;20733;-76
2023/03/22 21:49:10;;;;;;;5.73;4.70;;;15.50;27.50;;;;;;10466494;28;20757;-76
2023/03/22 21:54:13;;;;;;;6.43;5.00;;;15.40;27.60;;;;;;10441872;28;20236;-76
2023/03/22 21:59:15;;;;;;;5.00;4.27;;;15.40;27.60;;;;;;10445036;28;20224;-76
2023/03/22 22:04:18;;;;;;;4.57;3.90;;;15.30;27.50;;;;;;10439061;28;20232;-76
2023/03/22 22:09:21;;;;;;;5.47;4.63;;;15.20;27.70;;;;;;10445927;28;20231;-77
2023/03/22 22:14:23;;;;;;;5.17;4.30;;;15.20;27.70;;;;;;10445851;28;20225;-76
2023/03/22 22:19:26;;;;;;;4.87;4.40;;;15.10;27.70;;;;;;10445439;28;20228;-76
2023/03/22 22:24:28;;;;;;;5.37;4.73;;;15.00;27.80;;;;;;10441945;28;20228;-77
2023/03/22 22:29:30;;;;;;;5.17;3.90;;;15.00;27.90;;;;;;10447009;28;20220;-76
2023/03/22 22:34:34;;;;;;;5.27;4.80;;;14.90;27.80;;;;;;10448833;28;20233;-76
2023/03/22 22:39:36;;;;;;;5.33;4.50;;;14.80;28.10;;;;;;10443158;28;20228;-76
2023/03/22 22:44:38;;;;;;;5.33;4.83;;;14.80;28.00;;;;;;10453431;28;20233;-76
2023/03/22 22:49:41;;;;;;;5.50;4.40;;;14.70;28.00;;;;;;10451668;28;20235;-76
2023/03/22 22:54:44;;;;;;;4.73;4.33;;;14.60;28.20;;;;;;10460386;28;20228;-76
2023/03/22 22:59:46;;;;;;;5.40;4.90;;;14.60;28.10;;;;;;10448929;28;20295;-76
2023/03/22 23:04:51;;;;;;;5.47;4.97;;;14.50;28.20;;;;;;10446182;28;20237;-77
2023/03/22 23:09:53;;;;;;;5.37;4.87;;;14.50;28.40;;;;;;10454487;28;20228;-76
2023/03/22 23:14:56;;;;;;;5.77;4.90;;;14.50;28.30;;;;;;10447743;28;20599;-76
2023/03/22 23:20:00;;;;;;;5.33;4.70;;;14.50;28.40;;;;;;10452231;28;20582;-77
2023/03/22 23:25:05;;;;;;;7.37;5.10;;;14.40;28.40;;;;;;10449174;28;20241;-75
2023/03/22 23:30:12;;;;;;;4.87;4.37;;;14.40;28.60;;;;;;10446731;28;20299;-76
2023/03/22 23:35:16;;;;;;;5.07;4.67;;;14.30;28.50;;;;;;10456499;28;20289;-76
2023/03/22 23:40:18;;;;;;;4.87;4.47;;;14.30;28.50;;;;;;10445809;28;20224;-76
2023/03/22 23:45:21;;;;;;;5.73;4.37;;;14.20;28.40;;;;;;10454217;28;20279;-76
2023/03/22 23:50:25;;;;;;;4.87;4.47;;;14.20;28.50;;;;;;10446656;28;20230;-77
2023/03/22 23:55:28;;;;;;;5.33;4.23;;;14.10;28.60;;;;;;10448863;28;20229;-76
